createdAt,value
2018-03-01T00:00:26.608Z,40.00
2018-03-01T00:02:54.173Z,40.00
2018-03-01T00:05:22.528Z,40.10
2018-03-01T00:07:50.801Z,40.60
2018-03-01T00:10:19.114Z,40.10
2018-03-01T00:12:46.657Z,40.00
2018-03-01T00:15:14.947Z,40.40
2018-03-01T00:17:42.468Z,40.40
2018-03-01T00:20:10.797Z,40.50
2018-03-01T00:22:38.291Z,40.40
2018-03-01T00:25:05.841Z,40.50
2018-03-01T00:27:33.348Z,40.60
2018-03-01T00:30:00.856Z,40.70
2018-03-01T00:32:28.398Z,40.60
2018-03-01T00:34:55.933Z,40.60
2018-03-01T00:37:23.448Z,40.70
2018-03-01T00:39:51.744Z,41.70
2018-03-01T00:42:19.309Z,41.00
2018-03-01T00:44:46.815Z,41.20
2018-03-01T00:47:14.358Z,41.20
2018-03-01T00:49:41.865Z,41.30
2018-03-01T00:52:10.173Z,41.30
2018-03-01T00:54:38.566Z,41.30
2018-03-01T00:57:06.128Z,41.50
2018-03-01T00:59:33.629Z,41.40
2018-03-01T01:02:01.902Z,41.30
2018-03-01T01:04:30.200Z,41.60
2018-03-01T01:06:57.737Z,41.50
2018-03-01T01:09:26.005Z,41.70
2018-03-01T01:11:53.527Z,41.70
2018-03-01T01:14:21.068Z,41.80
2018-03-01T01:16:48.600Z,41.60
2018-03-01T01:19:16.111Z,41.60
2018-03-01T01:21:43.656Z,41.60
2018-03-01T01:24:11.187Z,41.70
2018-03-01T01:26:38.738Z,41.90
2018-03-01T01:29:06.257Z,42.00
2018-03-01T01:31:33.772Z,42.10
2018-03-01T01:34:01.318Z,42.00
2018-03-01T01:36:28.820Z,42.00
2018-03-01T01:38:56.366Z,42.00
2018-03-01T01:41:23.875Z,42.10
2018-03-01T01:43:52.140Z,42.30
2018-03-01T01:46:20.457Z,42.10
2018-03-01T01:48:47.979Z,42.10
2018-03-01T01:51:16.285Z,42.60
2018-03-01T01:53:43.811Z,42.60
2018-03-01T01:56:12.103Z,42.40
2018-03-01T01:58:39.612Z,42.40
2018-03-01T02:01:07.136Z,42.60
2018-03-01T02:03:34.653Z,42.60
2018-03-01T02:06:02.985Z,42.70
2018-03-01T02:08:30.485Z,42.70
2018-03-01T02:10:57.984Z,42.80
2018-03-01T02:13:25.510Z,42.80
2018-03-01T02:15:53.782Z,42.80
2018-03-01T02:18:22.083Z,42.80
2018-03-01T02:20:49.583Z,42.70
2018-03-01T02:23:17.089Z,42.80
2018-03-01T02:25:44.613Z,42.60
2018-03-01T02:28:12.112Z,42.70
2018-03-01T02:30:39.621Z,42.80
2018-03-01T02:33:07.162Z,42.80
2018-03-01T02:35:34.698Z,42.70
2018-03-01T02:38:02.205Z,42.80
2018-03-01T02:40:29.713Z,42.60
2018-03-01T02:42:57.188Z,43.30
2018-03-01T02:45:24.640Z,42.60
2018-03-01T02:47:52.137Z,42.60
2018-03-01T02:50:20.369Z,43.50
2018-03-01T02:52:47.822Z,42.80
2018-03-01T02:55:15.296Z,42.90
2018-03-01T02:57:42.752Z,42.90
2018-03-01T03:00:10.228Z,43.00
2018-03-01T03:02:37.682Z,42.80
2018-03-01T03:05:05.139Z,42.90
2018-03-01T03:07:32.627Z,43.10
2018-03-01T03:10:00.103Z,43.30
2018-03-01T03:12:27.567Z,42.60
2018-03-01T03:14:55.053Z,42.80
2018-03-01T03:17:22.519Z,42.80
2018-03-01T03:19:50.020Z,43.00
2018-03-01T03:22:17.556Z,43.00
2018-03-01T03:24:45.824Z,43.20
2018-03-01T03:27:14.116Z,43.30
2018-03-01T03:29:41.613Z,43.20
2018-03-01T03:32:09.147Z,43.30
2018-03-01T03:34:37.549Z,43.30
2018-03-01T03:37:05.067Z,43.30
2018-03-01T03:39:32.580Z,43.40
2018-03-01T03:42:00.113Z,43.10
2018-03-01T03:44:27.616Z,43.20
2018-03-01T03:46:55.128Z,43.00
2018-03-01T03:49:22.653Z,43.00
2018-03-01T03:51:50.154Z,43.10
2018-03-01T03:54:17.691Z,43.20
2018-03-01T03:56:45.198Z,43.20
2018-03-01T03:59:12.743Z,43.10
2018-03-01T04:01:40.241Z,42.90
2018-03-01T04:04:07.767Z,43.30
2018-03-01T04:06:35.300Z,43.50
2018-03-01T04:09:02.804Z,43.60
2018-03-01T04:11:31.112Z,43.60
2018-03-01T04:13:58.619Z,43.60
2018-03-01T04:16:26.144Z,43.70
2018-03-01T04:18:53.649Z,44.20
2018-03-01T04:21:21.948Z,44.60
2018-03-01T04:23:49.457Z,44.60
2018-03-01T04:26:16.987Z,44.70
2018-03-01T04:28:44.524Z,44.70
2018-03-01T04:31:12.038Z,44.70
2018-03-01T04:33:39.576Z,44.70
2018-03-01T04:36:07.084Z,44.50
2018-03-01T04:38:35.368Z,44.40
2018-03-01T04:41:02.868Z,44.40
2018-03-01T04:43:30.414Z,44.30
2018-03-01T04:45:57.946Z,44.10
2018-03-01T04:48:25.440Z,44.00
2018-03-01T04:50:52.968Z,44.30
2018-03-01T04:53:20.486Z,44.30
2018-03-01T04:55:48.024Z,44.00
2018-03-01T04:58:15.520Z,44.40
2018-03-01T05:00:43.041Z,44.20
2018-03-01T05:03:10.653Z,44.10
2018-03-01T05:05:38.185Z,44.40
2018-03-01T05:08:06.580Z,44.70
2018-03-01T05:10:34.151Z,44.60
2018-03-01T05:13:01.668Z,44.90
2018-03-01T05:15:29.944Z,44.90
2018-03-01T05:17:57.479Z,44.90
2018-03-01T05:20:25.051Z,44.60
2018-03-01T05:22:52.593Z,44.80
2018-03-01T05:25:20.092Z,44.90
2018-03-01T05:27:48.363Z,44.40
2018-03-01T05:30:16.659Z,44.40
2018-03-01T05:32:44.151Z,44.30
2018-03-01T05:35:11.677Z,44.70
2018-03-01T05:37:39.196Z,44.80
2018-03-01T05:40:06.732Z,45.00
2018-03-01T05:42:34.241Z,44.90
2018-03-01T05:45:01.777Z,45.00
2018-03-01T05:47:30.065Z,45.60
2018-03-01T05:49:58.331Z,45.50
2018-03-01T05:52:25.865Z,45.50
2018-03-01T05:54:53.381Z,45.60
2018-03-01T05:57:20.907Z,45.60
2018-03-01T05:59:49.180Z,45.60
2018-03-01T06:02:17.477Z,45.70
2018-03-01T06:04:44.973Z,45.60
2018-03-01T06:07:12.481Z,45.60
2018-03-01T06:09:40.778Z,45.60
2018-03-01T06:12:08.329Z,45.60
2018-03-01T06:14:35.845Z,45.50
2018-03-01T06:17:03.360Z,45.60
2018-03-01T06:19:30.895Z,45.50
2018-03-01T06:21:58.435Z,45.40
2018-03-01T06:24:26.734Z,45.80
2018-03-01T06:26:54.237Z,45.80
2018-03-01T06:29:21.773Z,46.30
2018-03-01T06:31:49.280Z,45.60
2018-03-01T06:34:17.585Z,45.70
2018-03-01T06:36:45.120Z,45.70
2018-03-01T06:39:13.336Z,45.60
2018-03-01T06:41:40.823Z,45.60
2018-03-01T06:44:08.271Z,45.80
2018-03-01T06:46:35.748Z,45.90
2018-03-01T06:49:03.247Z,45.90
2018-03-01T06:51:30.680Z,46.00
2018-03-01T06:53:58.159Z,45.90
2018-03-01T06:56:25.639Z,45.90
2018-03-01T06:58:53.090Z,45.90
2018-03-01T07:01:20.583Z,45.70
2018-03-01T07:03:48.067Z,45.70
2018-03-01T07:06:15.523Z,45.40
2018-03-01T07:08:43.004Z,45.20
2018-03-01T07:11:10.469Z,45.10
2018-03-01T07:13:37.958Z,44.60
2018-03-01T07:16:05.402Z,44.40
2018-03-01T07:18:32.865Z,44.40
2018-03-01T07:21:00.347Z,44.70
2018-03-01T07:23:28.582Z,44.70
2018-03-01T07:25:56.068Z,44.70
2018-03-01T07:28:23.520Z,44.90
2018-03-01T07:30:50.996Z,45.10
2018-03-01T07:33:19.226Z,45.10
2018-03-01T07:35:46.800Z,45.10
2018-03-01T07:38:14.284Z,45.10
2018-03-01T07:40:42.547Z,45.20
2018-03-01T07:43:10.786Z,45.30
2018-03-01T07:45:38.268Z,45.20
2018-03-01T07:48:05.711Z,45.00
2018-03-01T07:50:33.287Z,45.10
2018-03-01T07:53:00.756Z,45.10
2018-03-01T07:55:28.994Z,45.10
2018-03-01T07:57:56.459Z,45.00
2018-03-01T08:00:23.944Z,44.40
2018-03-01T08:02:52.233Z,44.10
2018-03-01T08:05:20.463Z,44.40
2018-03-01T08:07:47.923Z,44.30
2018-03-01T08:10:15.405Z,44.30
2018-03-01T08:12:43.638Z,44.10
2018-03-01T08:15:11.124Z,44.10
2018-03-01T08:17:38.572Z,43.70
2018-03-01T08:20:06.050Z,43.80
2018-03-01T08:22:34.303Z,43.50
2018-03-01T08:25:01.800Z,43.50
2018-03-01T08:27:29.254Z,43.20
2018-03-01T08:29:57.461Z,42.30
2018-03-01T08:32:24.941Z,42.30
2018-03-01T08:34:52.415Z,42.30
2018-03-01T08:37:19.895Z,43.00
2018-03-01T08:39:47.352Z,43.00
2018-03-01T08:42:14.828Z,42.80
2018-03-01T08:44:42.289Z,42.70
2018-03-01T08:47:09.753Z,42.90
2018-03-01T08:49:37.236Z,42.90
2018-03-01T08:52:04.687Z,42.60
2018-03-01T08:54:32.240Z,42.80
2018-03-01T08:56:59.700Z,42.50
2018-03-01T08:59:27.179Z,42.70
2018-03-01T09:01:55.420Z,43.10
2018-03-01T09:04:22.905Z,42.50
2018-03-01T09:06:50.349Z,42.40
2018-03-01T09:09:17.833Z,42.50
2018-03-01T09:11:46.118Z,42.50
2018-03-01T09:14:14.348Z,42.20
2018-03-01T09:16:41.860Z,42.10
2018-03-01T09:19:09.388Z,42.20
2018-03-01T09:21:36.839Z,41.90
2018-03-01T09:24:04.336Z,42.10
2018-03-01T09:26:31.796Z,41.60
2018-03-01T09:28:59.291Z,41.30
2018-03-01T09:31:26.770Z,41.30
2018-03-01T09:33:54.247Z,41.40
2018-03-01T09:36:21.711Z,41.20
2018-03-01T09:38:49.196Z,40.90
2018-03-01T09:41:16.662Z,40.80
2018-03-01T09:43:44.175Z,40.60
2018-03-01T09:46:11.647Z,40.40
2018-03-01T09:48:39.098Z,40.80
2018-03-01T09:51:06.590Z,41.10
2018-03-01T09:53:34.070Z,40.90
2018-03-01T09:56:01.564Z,40.50
2018-03-01T09:58:29.057Z,40.40
2018-03-01T10:00:56.535Z,40.40
2018-03-01T10:03:23.996Z,40.00
2018-03-01T10:05:51.469Z,39.30
2018-03-01T10:08:19.037Z,39.70
2018-03-01T10:10:46.573Z,39.10
2018-03-01T10:13:14.141Z,39.10
2018-03-01T10:15:42.421Z,38.60
2018-03-01T10:18:10.689Z,38.90
2018-03-01T10:20:39.000Z,38.10
2018-03-01T10:23:06.524Z,37.70
2018-03-01T10:25:34.826Z,38.20
2018-03-01T10:28:02.343Z,38.20
2018-03-01T10:30:29.876Z,37.20
2018-03-01T10:32:57.410Z,36.80
2018-03-01T10:35:25.260Z,37.10
2018-03-01T10:37:52.812Z,36.70
2018-03-01T10:40:21.117Z,35.90
2018-03-01T10:42:48.644Z,35.90
2018-03-01T10:45:16.931Z,36.40
2018-03-01T10:47:44.439Z,36.30
2018-03-01T10:50:11.936Z,36.10
2018-03-01T10:52:40.232Z,36.00
2018-03-01T10:55:07.761Z,36.00
2018-03-01T10:57:36.071Z,36.20
2018-03-01T11:00:03.578Z,36.10
2018-03-01T11:02:31.107Z,35.00
2018-03-01T11:04:58.621Z,35.00
2018-03-01T11:07:26.900Z,34.70
2018-03-01T11:09:54.399Z,34.70
2018-03-01T11:12:21.929Z,33.70
2018-03-01T11:14:49.443Z,33.30
2018-03-01T11:17:17.000Z,33.00
2018-03-01T11:19:44.499Z,33.60
2018-03-01T11:22:11.997Z,33.20
2018-03-01T11:24:39.524Z,31.80
2018-03-01T11:27:07.033Z,32.20
2018-03-01T11:29:34.560Z,31.90
2018-03-01T11:32:02.081Z,31.80
2018-03-01T11:34:29.623Z,31.70
2018-03-01T11:36:57.885Z,31.10
2018-03-01T11:39:25.410Z,31.10
2018-03-01T11:41:52.965Z,30.90
2018-03-01T11:44:20.467Z,30.50
2018-03-01T11:46:48.000Z,30.10
2018-03-01T11:49:15.522Z,30.20
2018-03-01T11:51:43.089Z,29.60
2018-03-01T11:54:10.580Z,29.60
2018-03-01T11:56:38.128Z,30.00
2018-03-01T11:59:05.636Z,29.90
2018-03-01T12:01:33.162Z,29.40
2018-03-01T12:04:01.485Z,29.80
2018-03-01T12:06:28.993Z,29.70
2018-03-01T12:08:56.537Z,28.50
2018-03-01T12:11:24.037Z,29.70
2018-03-01T12:13:51.538Z,28.90
2018-03-01T12:16:19.067Z,29.00
2018-03-01T12:18:46.614Z,28.20
2018-03-01T12:21:14.129Z,27.80
2018-03-01T12:23:41.665Z,27.80
2018-03-01T12:26:09.169Z,27.50
2018-03-01T12:28:37.475Z,27.40
2018-03-01T12:31:04.980Z,27.30
2018-03-01T12:33:32.482Z,27.70
2018-03-01T12:36:00.013Z,27.00
2018-03-01T12:38:28.309Z,27.50
2018-03-01T12:40:55.825Z,27.50
2018-03-01T12:43:24.100Z,28.40
2018-03-01T12:45:51.621Z,28.50
2018-03-01T12:48:19.164Z,28.70
2018-03-01T12:50:46.671Z,28.90
2018-03-01T12:53:14.244Z,28.90
2018-03-01T12:55:41.737Z,29.20
2018-03-01T12:58:09.243Z,30.10
2018-03-01T13:00:36.796Z,29.30
2018-03-01T13:03:04.305Z,29.50
2018-03-01T13:05:31.856Z,29.60
2018-03-01T13:07:59.359Z,29.80
2018-03-01T13:10:26.880Z,29.80
2018-03-01T13:12:54.418Z,30.00
2018-03-01T13:15:22.717Z,29.60
2018-03-01T13:17:50.247Z,29.60
2018-03-01T13:20:18.561Z,30.50
2018-03-01T13:22:46.079Z,30.50
2018-03-01T13:25:14.348Z,30.30
2018-03-01T13:27:41.909Z,30.30
2018-03-01T13:30:11.240Z,29.70
2018-03-01T13:32:38.781Z,29.70
2018-03-01T13:35:12.818Z,29.30
2018-03-01T13:37:40.348Z,29.30
2018-03-01T13:40:08.624Z,29.60
2018-03-01T13:42:37.381Z,29.80
2018-03-01T13:45:04.888Z,29.80
2018-03-01T13:47:32.470Z,29.80
2018-03-01T13:49:59.977Z,29.30
2018-03-01T13:52:28.275Z,28.80
2018-03-01T13:54:55.791Z,28.80
2018-03-01T13:57:23.320Z,28.70
2018-03-01T13:59:50.857Z,29.00
2018-03-01T14:02:18.370Z,28.50
2018-03-01T14:04:45.920Z,29.30
2018-03-01T14:07:16.274Z,30.00
2018-03-01T14:09:44.559Z,30.50
2018-03-01T14:15:12.427Z,30.30
2018-03-01T14:17:46.516Z,31.40
2018-03-01T14:23:29.618Z,31.90
2018-03-01T14:26:13.836Z,32.40
2018-03-01T14:28:42.909Z,31.80
2018-03-01T14:31:10.428Z,31.80
2018-03-01T14:33:37.924Z,32.10
2018-03-01T14:36:05.464Z,32.50
2018-03-01T14:38:32.978Z,32.70
2018-03-01T14:41:00.481Z,32.80
2018-03-01T14:43:28.024Z,33.10
2018-03-01T14:45:55.529Z,33.10
2018-03-01T14:48:23.839Z,33.30
2018-03-01T14:50:51.400Z,33.30
2018-03-01T14:53:18.932Z,33.40
2018-03-01T14:55:46.440Z,33.20
2018-03-01T14:58:13.993Z,33.40
2018-03-01T15:00:41.520Z,33.60
2018-03-01T15:03:09.043Z,33.60
2018-03-01T15:05:37.360Z,33.70
2018-03-01T15:08:04.861Z,33.70
2018-03-01T15:10:32.391Z,33.60
2018-03-01T15:12:59.904Z,33.80
2018-03-01T15:15:28.193Z,34.30
2018-03-01T15:17:55.703Z,34.30
2018-03-01T15:20:23.243Z,34.60
2018-03-01T15:22:50.842Z,34.80
2018-03-01T15:25:19.127Z,35.40
2018-03-01T15:27:47.448Z,35.60
2018-03-01T15:30:14.949Z,35.60
2018-03-01T15:32:43.248Z,35.90
2018-03-01T15:35:10.753Z,35.90
2018-03-01T15:37:38.293Z,36.10
2018-03-01T15:40:05.809Z,36.20
2018-03-01T15:42:34.073Z,36.30
2018-03-01T15:45:02.392Z,36.10
2018-03-01T15:47:29.937Z,36.10
2018-03-01T15:49:57.535Z,36.10
2018-03-01T15:52:25.078Z,36.40
2018-03-01T15:54:52.597Z,36.60
2018-03-01T15:57:20.123Z,36.90
2018-03-01T15:59:49.167Z,37.40
2018-03-01T16:02:16.734Z,37.40
2018-03-01T16:04:44.243Z,37.50
2018-03-01T16:07:11.787Z,37.40
2018-03-01T16:09:39.312Z,37.40
2018-03-01T16:12:06.873Z,37.30
2018-03-01T16:14:34.400Z,37.40
2018-03-01T16:17:01.968Z,37.30
2018-03-01T16:19:29.480Z,37.40
2018-03-01T16:21:57.012Z,37.40
2018-03-01T16:24:24.527Z,37.40
2018-03-01T16:26:52.059Z,37.50
2018-03-01T16:29:19.609Z,37.30
2018-03-01T16:31:47.132Z,37.30
2018-03-01T16:34:14.662Z,37.30
2018-03-01T16:36:42.202Z,37.40
2018-03-01T16:39:10.501Z,37.40
2018-03-01T16:41:38.022Z,37.40
2018-03-01T16:44:06.337Z,37.70
2018-03-01T16:46:33.876Z,37.60
2018-03-01T16:49:02.181Z,37.80
2018-03-01T16:51:29.692Z,37.80
2018-03-01T16:53:57.221Z,38.00
2018-03-01T16:56:24.720Z,37.90
2018-03-01T16:58:53.044Z,38.10
2018-03-01T17:01:20.577Z,38.00
2018-03-01T17:03:48.158Z,38.10
2018-03-01T17:06:15.677Z,38.20
2018-03-01T17:08:44.023Z,38.10
2018-03-01T17:11:11.550Z,38.10
2018-03-01T17:13:39.121Z,38.00
2018-03-01T17:16:06.637Z,38.30
2018-03-01T17:18:34.188Z,38.20
2018-03-01T17:21:01.742Z,38.40
2018-03-01T17:23:30.039Z,38.40
2018-03-01T17:25:57.650Z,38.30
2018-03-01T17:28:25.164Z,38.30
2018-03-01T17:30:52.712Z,38.50
2018-03-01T17:33:20.228Z,38.60
2018-03-01T17:35:47.801Z,38.70
2018-03-01T17:38:16.096Z,38.60
2018-03-01T17:40:43.617Z,38.50
2018-03-01T17:43:11.172Z,38.70
2018-03-01T17:45:38.702Z,38.70
2018-03-01T17:48:06.254Z,38.90
2018-03-01T17:50:33.785Z,39.00
2018-03-01T17:53:01.344Z,38.90
2018-03-01T17:55:28.879Z,38.90
2018-03-01T17:57:57.205Z,39.20
2018-03-01T18:00:24.744Z,39.20
2018-03-01T18:02:52.288Z,39.30
2018-03-01T18:05:20.610Z,39.50
2018-03-01T18:07:48.146Z,39.50
2018-03-01T18:10:15.746Z,39.60
2018-03-01T18:12:43.263Z,39.70
2018-03-01T18:15:10.808Z,39.60
2018-03-01T18:17:38.347Z,39.80
2018-03-01T18:20:06.662Z,39.90
2018-03-01T18:22:34.255Z,39.80
2018-03-01T18:25:01.790Z,40.00
2018-03-01T18:27:29.363Z,39.90
2018-03-01T18:29:56.922Z,39.80
2018-03-01T18:32:24.504Z,40.00
2018-03-01T18:34:52.022Z,40.00
2018-03-01T18:37:19.560Z,40.30
2018-03-01T18:39:47.097Z,40.20
2018-03-01T18:42:14.663Z,40.30
2018-03-01T18:44:42.210Z,40.50
2018-03-01T18:47:10.524Z,40.20
2018-03-01T18:49:38.082Z,40.20
2018-03-01T18:52:05.597Z,40.20
2018-03-01T18:54:33.190Z,40.30
2018-03-01T18:57:00.706Z,40.20
2018-03-01T18:59:29.033Z,40.60
2018-03-01T19:01:56.631Z,39.90
2018-03-01T19:04:24.183Z,40.00
2018-03-01T19:06:51.700Z,40.10
2018-03-01T19:09:19.250Z,40.30
2018-03-01T19:11:46.789Z,40.20
2018-03-01T19:14:15.103Z,40.20
2018-03-01T19:16:42.656Z,40.20
2018-03-01T19:19:10.191Z,40.20
2018-03-01T19:21:37.796Z,40.00
2018-03-01T19:24:05.359Z,40.00
2018-03-01T19:26:32.923Z,39.70
2018-03-01T19:29:00.491Z,39.50
2018-03-01T19:31:28.027Z,39.60
2018-03-01T19:33:55.586Z,39.70
2018-03-01T19:36:23.118Z,39.20
2018-03-01T19:38:50.728Z,39.30
2018-03-01T19:41:18.264Z,39.00
2018-03-01T19:43:45.874Z,38.70
2018-03-01T19:46:13.424Z,38.70
2018-03-01T19:48:40.992Z,38.90
2018-03-01T19:51:08.554Z,39.20
2018-03-01T19:53:36.075Z,39.00
2018-03-01T19:56:03.641Z,39.20
2018-03-01T19:58:31.185Z,39.30
2018-03-01T20:00:58.757Z,39.30
2018-03-01T20:03:26.316Z,39.50
2018-03-01T20:05:53.882Z,40.00
2018-03-01T20:08:22.182Z,39.50
2018-03-01T20:10:49.740Z,39.50
2018-03-01T20:13:17.861Z,39.70
2018-03-01T20:15:47.250Z,39.80
2018-03-01T20:18:15.716Z,39.80
2018-03-01T20:20:43.248Z,39.90
2018-03-01T20:23:10.812Z,40.00
2018-03-01T20:25:38.332Z,40.00
2018-03-01T20:28:05.899Z,40.00
2018-03-01T20:30:34.207Z,40.10
2018-03-01T20:33:01.772Z,40.00
2018-03-01T20:35:29.306Z,40.10
2018-03-01T20:37:57.639Z,40.40
2018-03-01T20:40:25.179Z,40.40
2018-03-01T20:42:52.757Z,40.40
2018-03-01T20:45:20.273Z,40.50
2018-03-01T20:47:47.808Z,40.50
2018-03-01T20:50:16.156Z,40.60
2018-03-01T20:52:43.687Z,40.60
2018-03-01T20:55:11.324Z,40.70
2018-03-01T20:57:38.831Z,40.70
2018-03-01T21:00:06.367Z,41.00
2018-03-01T21:02:33.915Z,41.10
2018-03-01T21:05:01.565Z,41.30
2018-03-01T21:07:29.135Z,41.40
2018-03-01T21:09:56.715Z,41.40
2018-03-01T21:12:24.303Z,41.20
2018-03-01T21:14:51.866Z,41.30
2018-03-01T21:17:20.179Z,41.30
2018-03-01T21:19:47.703Z,41.30
2018-03-01T21:22:16.035Z,41.40
2018-03-01T21:24:43.615Z,41.30
2018-03-01T21:27:11.125Z,41.20
2018-03-01T21:29:38.698Z,41.30
2018-03-01T21:32:06.214Z,41.30
2018-03-01T21:34:34.512Z,41.50
2018-03-01T21:37:02.050Z,41.40
2018-03-01T21:39:30.373Z,41.60
2018-03-01T21:41:57.913Z,41.50
2018-03-01T21:44:25.481Z,41.50
2018-03-01T21:47:05.021Z,41.60
2018-03-01T21:49:32.610Z,41.70
2018-03-01T21:52:00.169Z,41.80
2018-03-01T21:54:27.718Z,41.80
2018-03-01T21:56:55.238Z,41.80
2018-03-01T21:59:22.821Z,41.90
2018-03-01T22:01:50.372Z,41.80
2018-03-01T22:04:17.884Z,41.70
2018-03-01T22:06:46.194Z,41.80
2018-03-01T22:09:13.721Z,41.80
2018-03-01T22:11:42.087Z,41.90
2018-03-01T22:14:09.618Z,41.80
2018-03-01T22:16:37.151Z,41.90
2018-03-01T22:19:04.700Z,41.90
2018-03-01T22:21:32.226Z,42.10
2018-03-01T22:24:00.550Z,42.30
2018-03-01T22:26:28.084Z,42.20
2018-03-01T22:28:55.632Z,42.30
2018-03-01T22:31:24.113Z,42.60
2018-03-01T22:33:52.421Z,42.70
2018-03-01T22:36:19.980Z,42.70
2018-03-01T22:38:47.492Z,42.80
2018-03-01T22:41:15.804Z,43.00
2018-03-01T22:43:43.315Z,43.00
2018-03-01T22:46:10.859Z,43.00
2018-03-01T22:48:38.364Z,43.10
2018-03-01T22:51:05.934Z,43.20
2018-03-01T22:53:33.457Z,43.30
2018-03-01T22:56:01.758Z,44.00
2018-03-01T22:58:29.280Z,43.60
2018-03-01T23:00:56.812Z,43.60
2018-03-01T23:03:24.348Z,43.70
2018-03-01T23:05:51.890Z,43.80
2018-03-01T23:08:19.417Z,43.70
2018-03-01T23:10:46.947Z,43.80
2018-03-01T23:13:14.486Z,44.40
2018-03-01T23:15:42.018Z,43.90
2018-03-01T23:18:09.558Z,44.00
2018-03-01T23:20:37.837Z,44.30
2018-03-01T23:23:06.109Z,44.50
2018-03-01T23:25:34.464Z,44.60
2018-03-01T23:28:01.994Z,44.60
2018-03-01T23:30:29.524Z,44.70
2018-03-01T23:32:57.032Z,44.70
2018-03-01T23:35:24.563Z,44.60
2018-03-01T23:37:52.089Z,44.60
2018-03-01T23:40:19.629Z,44.60
2018-03-01T23:42:47.908Z,44.80
2018-03-01T23:45:16.225Z,44.90
2018-03-01T23:47:43.740Z,44.80
2018-03-01T23:50:12.057Z,44.80
2018-03-01T23:52:39.581Z,44.70
2018-03-01T23:55:07.860Z,44.90
2018-03-01T23:57:36.163Z,45.00
